Terminal Aerodrome Forecast
Issued by NWS

Home | Current Version | Previous Version | Text Only | Print | Product List | Glossary On
Versions: 1 2 3 4 5 6 7 8 9 10 11 12 13 14 15 16
000
FTUS46 KSEW 311130
TAFCLM
TAF
KCLM 311130Z 3112/0112 VRB03KT P6SM BKN050 OVC100
     FM311500 VRB03KT P6SM -RA SCT022 BKN035 OVC060
     FM311900 VRB03KT P6SM -SHRA BKN040 BKN070
     FM011000 VRB03KT P6SM -RA BKN025 OVC040=

USA.gov is the U.S. government's official web portal to all federal, state and local government web resources and services.